createdAt,value
2016-09-06T00:00:19.540Z,0
2016-09-06T00:01:19.125Z,0
2016-09-06T00:02:19.120Z,0
2016-09-06T00:03:19.065Z,0
2016-09-06T00:04:19.411Z,0
2016-09-06T00:05:19.016Z,0
2016-09-06T00:06:19.414Z,0
2016-09-06T00:07:18.967Z,0
2016-09-06T00:08:18.930Z,0
2016-09-06T00:09:19.277Z,0
2016-09-06T00:11:18.890Z,0
2016-09-06T00:12:18.815Z,0
2016-09-06T00:13:18.815Z,0
2016-09-06T00:14:18.789Z,0
2016-09-06T00:15:18.759Z,0
2016-09-06T00:16:19.095Z,0
2016-09-06T00:17:18.714Z,0
2016-09-06T00:18:19.035Z,0
2016-09-06T00:19:33.383Z,0
2016-09-06T00:20:18.632Z,0
2016-09-06T00:21:33.308Z,0
2016-09-06T00:22:18.966Z,0
2016-09-06T00:23:18.540Z,0
2016-09-06T00:24:18.507Z,0
2016-09-06T00:25:18.523Z,0
2016-09-06T00:26:18.824Z,0
2016-09-06T00:27:18.467Z,0
2016-09-06T00:28:18.460Z,0
2016-09-06T00:29:18.476Z,0
2016-09-06T00:30:18.833Z,0
2016-09-06T00:31:18.352Z,0
2016-09-06T00:32:18.735Z,0
2016-09-06T00:33:18.299Z,0
2016-09-06T00:34:18.289Z,0
2016-09-06T00:35:18.223Z,0
2016-09-06T00:36:18.285Z,0
2016-09-06T00:37:32.927Z,0
2016-09-06T00:38:18.292Z,0
2016-09-06T00:39:32.908Z,0
2016-09-06T00:40:18.102Z,0
2016-09-06T00:41:18.103Z,0
2016-09-06T00:42:18.079Z,0
2016-09-06T00:43:18.466Z,0
2016-09-06T00:44:17.999Z,0
2016-09-06T00:45:18.001Z,0
2016-09-06T00:46:17.967Z,0
2016-09-06T00:47:17.945Z,0
2016-09-06T00:48:17.936Z,0
2016-09-06T00:49:17.878Z,0
2016-09-06T00:50:17.849Z,0
2016-09-06T00:51:32.546Z,0
2016-09-06T00:52:17.837Z,0
2016-09-06T00:53:32.503Z,0
2016-09-06T00:54:17.772Z,0
2016-09-06T00:55:32.436Z,0
2016-09-06T00:56:17.722Z,0
2016-09-06T00:58:17.656Z,0
2016-09-06T00:59:17.619Z,0
2016-09-06T01:00:17.602Z,0
2016-09-06T01:01:17.778Z,0
2016-09-06T01:02:17.634Z,0
2016-09-06T01:03:17.519Z,0
2016-09-06T01:04:17.495Z,0
2016-09-06T01:05:17.464Z,0
2016-09-06T01:06:17.466Z,0
2016-09-06T01:07:18.184Z,0
2016-09-06T01:09:17.460Z,0
2016-09-06T01:10:17.349Z,0
2016-09-06T01:11:17.307Z,0
2016-09-06T01:12:17.307Z,0
2016-09-06T01:13:17.285Z,0
2016-09-06T01:14:17.320Z,0
2016-09-06T01:15:31.929Z,0
2016-09-06T01:16:17.184Z,0
2016-09-06T01:17:17.173Z,0
2016-09-06T01:18:17.174Z,0
2016-09-06T01:19:17.153Z,0
2016-09-06T01:20:17.095Z,0
2016-09-06T01:21:17.049Z,0
2016-09-06T01:22:17.042Z,0
2016-09-06T01:23:17.007Z,0
2016-09-06T01:25:16.972Z,0
2016-09-06T01:26:31.650Z,0
2016-09-06T01:27:16.949Z,0
2016-09-06T01:29:16.881Z,0
2016-09-06T01:31:16.829Z,0
2016-09-06T01:32:16.770Z,0
2016-09-06T01:33:16.745Z,0
2016-09-06T01:34:16.720Z,0
2016-09-06T01:35:16.693Z,0
2016-09-06T01:36:16.761Z,0
2016-09-06T01:37:17.020Z,0
2016-09-06T01:38:16.649Z,0
2016-09-06T01:39:16.607Z,0
2016-09-06T01:40:16.581Z,0
2016-09-06T01:41:31.260Z,0
2016-09-06T01:42:16.533Z,0
2016-09-06T01:44:16.452Z,0
2016-09-06T01:45:31.276Z,0
2016-09-06T01:46:16.731Z,0
2016-09-06T01:47:16.436Z,0
2016-09-06T01:48:16.368Z,0
2016-09-06T01:49:16.330Z,0
2016-09-06T01:50:16.330Z,0
2016-09-06T01:51:16.291Z,0
2016-09-06T01:52:31.280Z,0
2016-09-06T01:53:16.258Z,0
2016-09-06T01:54:16.215Z,0
2016-09-06T01:55:16.187Z,0
2016-09-06T01:56:16.163Z,0
2016-09-06T01:57:16.153Z,0
2016-09-06T01:58:16.228Z,0
2016-09-06T01:59:16.105Z,0
2016-09-06T02:00:16.047Z,0
2016-09-06T02:01:16.132Z,0
2016-09-06T02:02:16.009Z,0
2016-09-06T02:03:30.693Z,0
2016-09-06T02:04:15.944Z,0
2016-09-06T02:05:15.923Z,0
2016-09-06T02:06:15.929Z,0
2016-09-06T02:07:15.888Z,0
2016-09-06T02:08:16.290Z,0
2016-09-06T02:09:15.840Z,0
2016-09-06T02:10:30.801Z,0
2016-09-06T02:11:15.772Z,0
2016-09-06T02:12:30.471Z,0
2016-09-06T02:13:15.707Z,0
2016-09-06T02:14:15.695Z,0
2016-09-06T02:15:16.101Z,0
2016-09-06T02:16:15.633Z,0
2016-09-06T02:17:15.670Z,0
2016-09-06T02:18:15.602Z,0
2016-09-06T02:19:15.585Z,0
2016-09-06T02:20:15.944Z,0
2016-09-06T02:21:15.539Z,0
2016-09-06T02:22:15.505Z,0
2016-09-06T02:23:15.878Z,0
2016-09-06T02:24:15.460Z,0
2016-09-06T02:25:15.437Z,0
2016-09-06T02:26:15.397Z,0
2016-09-06T02:27:15.363Z,0
2016-09-06T02:28:15.341Z,0
2016-09-06T02:29:15.958Z,0
2016-09-06T02:30:15.413Z,0
2016-09-06T02:31:15.635Z,0
2016-09-06T02:32:21.521Z,0
2016-09-06T02:33:15.202Z,0
2016-09-06T02:34:15.173Z,0
2016-09-06T02:35:15.142Z,0
2016-09-06T02:36:15.269Z,0
2016-09-06T02:38:15.086Z,0
2016-09-06T02:39:15.071Z,0
2016-09-06T02:40:15.014Z,0
2016-09-06T02:41:15.372Z,0
2016-09-06T02:42:14.981Z,0
2016-09-06T02:43:14.973Z,0
2016-09-06T02:44:15.308Z,0
2016-09-06T02:45:14.885Z,0
2016-09-06T02:46:14.867Z,0
2016-09-06T02:47:15.134Z,0
2016-09-06T02:48:15.180Z,0
2016-09-06T02:49:15.144Z,0
2016-09-06T02:50:14.790Z,0
2016-09-06T02:51:15.209Z,0
2016-09-06T02:52:14.707Z,0
2016-09-06T02:53:15.370Z,0
2016-09-06T02:54:14.658Z,0
2016-09-06T02:55:15.097Z,0
2016-09-06T02:56:14.608Z,0
2016-09-06T02:57:14.954Z,0
2016-09-06T02:58:14.950Z,0
2016-09-06T02:59:14.528Z,0
2016-09-06T03:00:14.495Z,0
2016-09-06T03:01:14.477Z,0
2016-09-06T03:02:14.450Z,0
2016-09-06T03:03:14.575Z,0
2016-09-06T03:04:14.414Z,0
2016-09-06T03:05:14.451Z,0
2016-09-06T03:06:14.364Z,0
2016-09-06T03:07:14.701Z,0
2016-09-06T03:08:15.028Z,0
2016-09-06T03:09:14.272Z,0
2016-09-06T03:10:29.283Z,0
2016-09-06T03:11:14.249Z,0
2016-09-06T03:12:14.307Z,0
2016-09-06T03:13:14.594Z,0
2016-09-06T03:14:14.122Z,0
2016-09-06T03:15:14.097Z,0
2016-09-06T03:16:14.063Z,0
2016-09-06T03:17:14.110Z,0
2016-09-06T03:18:14.016Z,0
2016-09-06T03:19:14.048Z,0
2016-09-06T03:20:14.349Z,0
2016-09-06T03:22:14.613Z,0
2016-09-06T03:23:13.923Z,0
2016-09-06T03:24:13.909Z,0
2016-09-06T03:25:13.856Z,0
2016-09-06T03:26:13.815Z,0
2016-09-06T03:27:14.192Z,0
2016-09-06T03:28:13.797Z,0
2016-09-06T03:29:13.753Z,0
2016-09-06T03:30:13.717Z,0
2016-09-06T03:31:13.705Z,0
2016-09-06T03:32:13.668Z,0
2016-09-06T03:33:13.664Z,0
2016-09-06T03:34:13.605Z,0
2016-09-06T03:35:13.605Z,0
2016-09-06T03:36:13.561Z,0
2016-09-06T03:37:13.556Z,0
2016-09-06T03:38:13.528Z,0
2016-09-06T03:39:13.511Z,0
2016-09-06T03:40:13.436Z,0
2016-09-06T03:41:13.818Z,0
2016-09-06T03:42:13.837Z,0
2016-09-06T03:43:13.499Z,0
2016-09-06T03:44:13.370Z,0
2016-09-06T03:45:13.336Z,0
2016-09-06T03:46:28.336Z,0
2016-09-06T03:47:13.316Z,0
2016-09-06T03:48:27.965Z,0
2016-09-06T03:49:13.226Z,0
2016-09-06T03:50:27.981Z,0
2016-09-06T03:51:13.586Z,0
2016-09-06T03:52:13.186Z,0
2016-09-06T03:53:13.147Z,0
2016-09-06T03:54:13.494Z,0
2016-09-06T03:55:13.162Z,0
2016-09-06T03:56:13.034Z,0
2016-09-06T03:58:13.396Z,0
2016-09-06T03:59:12.984Z,0
2016-09-06T04:00:12.954Z,0
2016-09-06T04:01:12.905Z,0
2016-09-06T04:02:12.907Z,0
2016-09-06T04:03:12.934Z,0
2016-09-06T04:04:13.247Z,0
2016-09-06T04:05:12.799Z,0
2016-09-06T04:06:27.504Z,0
2016-09-06T04:07:13.107Z,0
2016-09-06T04:08:27.440Z,0
2016-09-06T04:09:12.699Z,0
2016-09-06T04:10:28.374Z,0
2016-09-06T04:11:12.656Z,0
2016-09-06T04:12:27.397Z,0
2016-09-06T04:13:12.632Z,0
2016-09-06T04:14:12.554Z,0
2016-09-06T04:15:12.574Z,0
2016-09-06T04:16:12.882Z,0
2016-09-06T04:17:12.536Z,0
2016-09-06T04:18:12.481Z,0
2016-09-06T04:19:12.467Z,0
2016-09-06T04:20:12.410Z,0
2016-09-06T04:21:12.432Z,0
2016-09-06T04:22:12.750Z,0
2016-09-06T04:23:12.338Z,0
2016-09-06T04:24:12.796Z,0
2016-09-06T04:25:12.330Z,0
2016-09-06T04:26:12.352Z,0
2016-09-06T04:27:12.273Z,0
2016-09-06T04:28:12.241Z,0
2016-09-06T04:29:12.168Z,4
2016-09-06T04:30:12.165Z,4
2016-09-06T04:31:12.170Z,0
2016-09-06T04:32:17.151Z,0
2016-09-06T04:33:12.081Z,4
2016-09-06T04:34:12.061Z,4
2016-09-06T04:35:12.610Z,0
2016-09-06T04:36:12.122Z,4
2016-09-06T04:37:11.945Z,4
2016-09-06T04:38:11.953Z,4
2016-09-06T04:39:11.943Z,8
2016-09-06T04:40:12.255Z,4
2016-09-06T04:41:11.847Z,4
2016-09-06T04:42:11.853Z,12
2016-09-06T04:43:11.808Z,12
2016-09-06T04:44:11.777Z,12
2016-09-06T04:45:26.946Z,16
2016-09-06T04:46:11.797Z,16
2016-09-06T04:47:26.456Z,16
2016-09-06T04:48:11.709Z,20
2016-09-06T04:49:11.660Z,20
2016-09-06T04:50:11.655Z,24
2016-09-06T04:51:11.675Z,24
2016-09-06T04:52:11.617Z,24
2016-09-06T04:53:11.568Z,28
2016-09-06T04:54:11.598Z,32
2016-09-06T04:55:11.496Z,32
2016-09-06T04:56:11.856Z,36
2016-09-06T04:57:11.809Z,40
2016-09-06T04:58:11.396Z,40
2016-09-06T04:59:11.409Z,44
2016-09-06T05:00:11.366Z,48
2016-09-06T05:01:11.379Z,52
2016-09-06T05:02:11.280Z,56
2016-09-06T05:03:11.286Z,56
2016-09-06T05:04:12.067Z,64
2016-09-06T05:05:11.227Z,64
2016-09-06T05:06:11.189Z,68
2016-09-06T05:07:11.201Z,72
2016-09-06T05:08:11.173Z,76
2016-09-06T05:09:11.240Z,80
2016-09-06T05:10:11.145Z,84
2016-09-06T05:11:11.079Z,84
2016-09-06T05:12:26.141Z,92
2016-09-06T05:13:25.731Z,96
2016-09-06T05:14:11.395Z,100
2016-09-06T05:15:11.072Z,104
2016-09-06T05:16:10.959Z,108
2016-09-06T05:17:10.965Z,108
2016-09-06T05:18:10.867Z,116
2016-09-06T05:19:11.348Z,116
2016-09-06T05:20:11.613Z,124
2016-09-06T05:21:10.809Z,128
2016-09-06T05:22:11.177Z,132
2016-09-06T05:23:10.752Z,132
2016-09-06T05:24:10.721Z,140
2016-09-06T05:25:10.716Z,144
2016-09-06T05:26:10.685Z,148
2016-09-06T05:27:10.642Z,152
2016-09-06T05:28:25.646Z,156
2016-09-06T05:29:10.591Z,160
2016-09-06T05:30:10.613Z,160
2016-09-06T05:31:10.832Z,164
2016-09-06T05:32:10.891Z,172
2016-09-06T05:33:10.479Z,176
2016-09-06T05:34:10.493Z,176
2016-09-06T05:35:10.842Z,180
2016-09-06T05:36:10.421Z,184
2016-09-06T05:37:25.115Z,188
2016-09-06T05:38:10.723Z,192
2016-09-06T05:39:10.407Z,192
2016-09-06T05:40:10.327Z,196
2016-09-06T05:41:10.348Z,200
2016-09-06T05:42:10.368Z,204
2016-09-06T05:43:10.248Z,204
2016-09-06T05:44:10.227Z,208
2016-09-06T05:45:10.228Z,212
2016-09-06T05:46:25.156Z,212
2016-09-06T05:47:10.150Z,216
2016-09-06T05:48:10.171Z,220
2016-09-06T05:49:10.108Z,224
2016-09-06T05:50:10.547Z,228
2016-09-06T05:51:10.023Z,232
2016-09-06T05:52:10.039Z,236
2016-09-06T05:53:09.972Z,236
2016-09-06T05:54:09.927Z,240
2016-09-06T05:55:10.363Z,244
2016-09-06T05:56:09.992Z,248
2016-09-06T05:57:09.965Z,252
2016-09-06T05:58:09.827Z,256
2016-09-06T05:59:09.887Z,260
2016-09-06T06:00:09.788Z,264
2016-09-06T06:01:09.771Z,268
2016-09-06T06:02:09.758Z,272
2016-09-06T06:03:09.811Z,276
2016-09-06T06:04:10.046Z,280
2016-09-06T06:05:09.999Z,284
2016-09-06T06:06:09.797Z,288
2016-09-06T06:07:10.000Z,296
2016-09-06T06:08:09.624Z,296
2016-09-06T06:09:09.591Z,300
2016-09-06T06:10:10.061Z,308
2016-09-06T06:11:09.582Z,312
2016-09-06T06:12:09.849Z,316
2016-09-06T06:13:09.808Z,324
2016-09-06T06:14:09.453Z,332
2016-09-06T06:15:09.804Z,336
2016-09-06T06:16:24.432Z,344
2016-09-06T06:17:09.387Z,348
2016-09-06T06:18:24.238Z,356
2016-09-06T06:19:09.431Z,360
2016-09-06T06:20:16.155Z,368
2016-09-06T06:21:10.806Z,368
2016-09-06T06:22:09.207Z,376
2016-09-06T06:23:09.667Z,380
2016-09-06T06:24:23.850Z,388
2016-09-06T06:25:09.380Z,388
2016-09-06T06:26:09.100Z,392
2016-09-06T06:27:23.786Z,396
2016-09-06T06:28:09.391Z,400
2016-09-06T06:29:10.167Z,404
2016-09-06T06:30:10.203Z,408
2016-09-06T06:31:09.376Z,416
2016-09-06T06:32:08.948Z,416
2016-09-06T06:33:09.393Z,420
2016-09-06T06:34:10.417Z,428
2016-09-06T06:35:10.204Z,428
2016-09-06T06:36:08.839Z,432
2016-09-06T06:37:09.073Z,432
2016-09-06T06:38:09.161Z,436
2016-09-06T06:39:08.805Z,440
2016-09-06T06:40:08.719Z,444
2016-09-06T06:41:08.765Z,444
2016-09-06T06:42:08.778Z,448
2016-09-06T06:43:08.719Z,452
2016-09-06T06:44:08.640Z,456
2016-09-06T06:45:08.716Z,460
2016-09-06T06:46:23.668Z,460
2016-09-06T06:47:08.618Z,464
2016-09-06T06:48:23.252Z,468
2016-09-06T06:49:08.582Z,464
2016-09-06T06:50:08.499Z,468
2016-09-06T06:51:08.854Z,468
2016-09-06T06:52:08.605Z,472
2016-09-06T06:53:08.535Z,472
2016-09-06T06:54:08.740Z,472
2016-09-06T06:55:23.099Z,476
2016-09-06T06:56:08.322Z,476
2016-09-06T06:57:08.465Z,480
2016-09-06T06:58:08.359Z,480
2016-09-06T06:59:08.238Z,484
2016-09-06T07:00:08.230Z,484
2016-09-06T07:01:08.223Z,492
2016-09-06T07:02:08.242Z,492
2016-09-06T07:04:08.147Z,500
2016-09-06T07:05:08.502Z,496
2016-09-06T07:06:08.058Z,500
2016-09-06T07:07:09.027Z,500
2016-09-06T07:08:08.899Z,504
2016-09-06T07:09:08.011Z,504
2016-09-06T07:10:23.634Z,508
2016-09-06T07:11:08.061Z,508
2016-09-06T07:12:08.332Z,512
2016-09-06T07:13:07.966Z,512
2016-09-06T07:14:07.919Z,520
2016-09-06T07:15:07.926Z,524
2016-09-06T07:16:07.840Z,528
2016-09-06T07:17:07.831Z,528
2016-09-06T07:18:22.522Z,536
2016-09-06T07:19:07.912Z,540
2016-09-06T07:20:07.919Z,540
2016-09-06T07:21:08.087Z,544
2016-09-06T07:22:07.720Z,548
2016-09-06T07:23:07.698Z,552
2016-09-06T07:24:07.629Z,556
2016-09-06T07:25:08.221Z,564
2016-09-06T07:26:13.377Z,568
2016-09-06T07:27:07.636Z,568
2016-09-06T07:28:07.499Z,572
2016-09-06T07:29:07.868Z,572
2016-09-06T07:30:07.493Z,576
2016-09-06T07:31:07.471Z,584
2016-09-06T07:32:09.078Z,592
2016-09-06T07:33:08.263Z,596
2016-09-06T07:34:07.552Z,600
2016-09-06T07:35:07.525Z,604
2016-09-06T07:36:07.389Z,608
2016-09-06T07:37:07.731Z,620
2016-09-06T07:38:07.366Z,628
2016-09-06T07:39:07.426Z,632
2016-09-06T07:40:07.650Z,636
2016-09-06T07:41:07.442Z,648
2016-09-06T07:42:07.977Z,644
2016-09-06T07:43:07.622Z,648
2016-09-06T07:44:22.272Z,648
2016-09-06T07:45:07.923Z,652
2016-09-06T07:46:07.864Z,652
2016-09-06T07:47:07.788Z,652
2016-09-06T07:48:07.301Z,656
2016-09-06T07:49:08.972Z,656
2016-09-06T07:50:07.548Z,656
2016-09-06T07:51:07.994Z,664
2016-09-06T07:52:07.048Z,664
2016-09-06T07:53:08.155Z,664
2016-09-06T07:54:07.005Z,668
2016-09-06T07:55:21.751Z,668
2016-09-06T07:56:07.544Z,668
2016-09-06T07:57:06.792Z,668
2016-09-06T07:58:07.449Z,668
2016-09-06T07:59:07.348Z,668
2016-09-06T08:00:07.221Z,668
2016-09-06T08:01:07.053Z,668
2016-09-06T08:02:07.293Z,668
2016-09-06T08:04:06.987Z,664
2016-09-06T08:05:12.900Z,664
2016-09-06T08:06:06.653Z,664
2016-09-06T08:07:06.983Z,664
2016-09-06T08:08:21.295Z,668
2016-09-06T08:09:21.263Z,664
2016-09-06T08:10:07.427Z,664
2016-09-06T08:11:06.505Z,668
2016-09-06T08:12:06.801Z,668
2016-09-06T08:13:07.760Z,668
2016-09-06T08:14:07.982Z,668
2016-09-06T08:15:08.723Z,676
2016-09-06T08:16:21.066Z,672
2016-09-06T08:17:06.330Z,676
2016-09-06T08:18:06.360Z,672
2016-09-06T08:19:06.632Z,672
2016-09-06T08:20:06.279Z,672
2016-09-06T08:21:06.592Z,672
2016-09-06T08:22:06.239Z,672
2016-09-06T08:23:06.147Z,672
2016-09-06T08:24:06.151Z,672
2016-09-06T08:25:06.509Z,676
2016-09-06T08:26:06.096Z,672
2016-09-06T08:27:06.436Z,672
2016-09-06T08:28:06.170Z,668
2016-09-06T08:29:06.149Z,668
2016-09-06T08:30:06.007Z,668
2016-09-06T08:31:05.966Z,668
2016-09-06T08:32:06.128Z,668
2016-09-06T08:33:06.262Z,672
2016-09-06T08:34:06.238Z,676
2016-09-06T08:35:05.967Z,676
2016-09-06T08:36:06.105Z,676
2016-09-06T08:37:06.070Z,676
2016-09-06T08:38:06.181Z,676
2016-09-06T08:39:05.751Z,680
2016-09-06T08:40:05.835Z,684
2016-09-06T08:41:05.724Z,680
2016-09-06T08:42:05.803Z,684
2016-09-06T08:43:20.421Z,684
2016-09-06T08:44:05.638Z,680
2016-09-06T08:45:06.302Z,680
2016-09-06T08:46:05.599Z,676
2016-09-06T08:47:05.935Z,676
2016-09-06T08:48:05.982Z,672
2016-09-06T08:49:05.559Z,668
2016-09-06T08:50:05.483Z,668
2016-09-06T08:51:05.614Z,664
2016-09-06T08:52:05.483Z,668
2016-09-06T08:53:05.401Z,672
2016-09-06T08:54:05.384Z,668
2016-09-06T08:56:20.234Z,672
2016-09-06T08:57:05.817Z,672
2016-09-06T08:58:05.417Z,680
2016-09-06T08:59:05.361Z,680
2016-09-06T09:00:05.288Z,688
2016-09-06T09:01:05.435Z,696
2016-09-06T09:02:05.246Z,700
2016-09-06T09:04:05.925Z,712
2016-09-06T09:05:05.468Z,716
2016-09-06T09:06:05.220Z,724
2016-09-06T09:07:05.091Z,728
2016-09-06T09:08:05.246Z,732
2016-09-06T09:09:05.195Z,732
2016-09-06T09:10:05.430Z,732
2016-09-06T09:11:04.980Z,732
2016-09-06T09:12:19.800Z,740
2016-09-06T09:13:04.951Z,748
2016-09-06T09:14:04.978Z,752
2016-09-06T09:15:05.169Z,748
2016-09-06T09:16:05.247Z,744
2016-09-06T09:17:05.695Z,740
2016-09-06T09:19:19.502Z,736
2016-09-06T09:20:19.545Z,740
2016-09-06T09:21:19.744Z,736
2016-09-06T09:22:05.147Z,736
2016-09-06T09:23:04.914Z,736
2016-09-06T09:24:19.537Z,728
2016-09-06T09:25:04.608Z,724
2016-09-06T09:26:04.885Z,732
2016-09-06T09:27:05.047Z,728
2016-09-06T09:28:04.810Z,720
2016-09-06T09:29:05.299Z,720
2016-09-06T09:30:19.410Z,716
2016-09-06T09:31:04.727Z,712
2016-09-06T09:32:19.197Z,704
2016-09-06T09:33:04.967Z,696
2016-09-06T09:34:04.895Z,696
2016-09-06T09:35:04.482Z,696
2016-09-06T09:36:04.493Z,692
2016-09-06T09:37:05.146Z,680
2016-09-06T09:38:05.169Z,676
2016-09-06T09:39:04.562Z,680
2016-09-06T09:40:04.372Z,684
2016-09-06T09:41:19.098Z,676
2016-09-06T09:42:04.661Z,672
2016-09-06T09:43:04.196Z,680
2016-09-06T09:44:04.168Z,680
2016-09-06T09:45:04.586Z,676
2016-09-06T09:46:04.159Z,676
2016-09-06T09:47:04.514Z,680
2016-09-06T09:48:04.054Z,696
2016-09-06T09:49:05.116Z,720
2016-09-06T09:50:04.031Z,724
2016-09-06T09:51:03.961Z,720
2016-09-06T09:52:03.962Z,728
2016-09-06T09:53:03.997Z,720
2016-09-06T09:54:03.941Z,732
2016-09-06T09:55:06.063Z,736
2016-09-06T09:56:03.903Z,740
2016-09-06T09:57:03.804Z,744
2016-09-06T09:58:03.842Z,736
2016-09-06T09:59:18.524Z,740
2016-09-06T10:00:03.747Z,744
2016-09-06T10:01:05.510Z,752
2016-09-06T10:02:03.730Z,756
2016-09-06T10:03:04.169Z,780
2016-09-06T10:04:03.655Z,792
2016-09-06T10:05:03.666Z,800
2016-09-06T10:06:03.796Z,800
2016-09-06T10:07:03.627Z,780
2016-09-06T10:08:03.955Z,768
2016-09-06T10:09:03.566Z,764
2016-09-06T10:10:03.529Z,772
2016-09-06T10:11:04.166Z,780
2016-09-06T10:12:03.508Z,804
2016-09-06T10:13:03.475Z,820
2016-09-06T10:14:03.420Z,800
2016-09-06T10:15:03.390Z,784
2016-09-06T10:16:03.527Z,788
2016-09-06T10:17:03.341Z,788
2016-09-06T10:18:04.886Z,780
2016-09-06T10:19:03.674Z,780
2016-09-06T10:20:18.039Z,824
2016-09-06T10:21:03.236Z,928
2016-09-06T10:22:03.297Z,944
2016-09-06T10:23:03.259Z,896
2016-09-06T10:24:03.192Z,848
2016-09-06T10:25:03.163Z,824
2016-09-06T10:26:03.545Z,816
2016-09-06T10:27:03.089Z,812
2016-09-06T10:28:03.186Z,796
2016-09-06T10:29:03.295Z,804
2016-09-06T10:30:03.087Z,820
2016-09-06T10:32:03.335Z,832
2016-09-06T10:33:17.983Z,832
2016-09-06T10:34:02.953Z,840
2016-09-06T10:35:17.641Z,836
2016-09-06T10:36:02.901Z,824
2016-09-06T10:37:02.879Z,824
2016-09-06T10:38:02.856Z,844
2016-09-06T10:39:03.366Z,840
2016-09-06T10:40:17.496Z,832
2016-09-06T10:41:02.775Z,836
2016-09-06T10:42:02.749Z,852
2016-09-06T10:43:02.830Z,856
2016-09-06T10:44:02.964Z,860
2016-09-06T10:45:03.015Z,884
2016-09-06T10:46:17.379Z,908
2016-09-06T10:47:02.680Z,892
2016-09-06T10:48:02.604Z,900
2016-09-06T10:49:02.596Z,944
2016-09-06T10:50:02.613Z,996
2016-09-06T10:51:02.755Z,1000
2016-09-06T10:52:02.620Z,996
2016-09-06T10:53:02.637Z,976
2016-09-06T10:54:02.569Z,936
2016-09-06T10:55:02.661Z,912
2016-09-06T10:56:02.938Z,896
2016-09-06T10:57:02.472Z,892
2016-09-06T10:58:02.877Z,888
2016-09-06T10:59:02.390Z,896
2016-09-06T11:00:02.840Z,912
2016-09-06T11:01:17.017Z,940
2016-09-06T11:02:02.229Z,948
2016-09-06T11:03:02.228Z,964
2016-09-06T11:04:02.590Z,968
2016-09-06T11:05:31.618Z,972
2016-09-06T11:06:02.147Z,968
2016-09-06T11:07:02.133Z,944
2016-09-06T11:09:02.631Z,932
2016-09-06T11:10:02.752Z,948
2016-09-06T11:11:02.062Z,956
2016-09-06T11:12:16.787Z,988
2016-09-06T11:13:02.003Z,1008
2016-09-06T11:14:02.158Z,1028
2016-09-06T11:15:01.981Z,1020
2016-09-06T11:16:02.516Z,1024
2016-09-06T11:17:01.910Z,1036
2016-09-06T11:18:01.890Z,1056
2016-09-06T11:19:01.888Z,1084
2016-09-06T11:20:01.817Z,1084
2016-09-06T11:21:17.041Z,1076
2016-09-06T11:22:01.785Z,1060
2016-09-06T11:23:01.751Z,1076
2016-09-06T11:24:01.749Z,1092
2016-09-06T11:25:02.151Z,1084
2016-09-06T11:26:01.738Z,1076
2016-09-06T11:27:01.672Z,1036
2016-09-06T11:28:01.645Z,1056
2016-09-06T11:29:01.646Z,1072
2016-09-06T11:30:01.542Z,1080
2016-09-06T11:32:01.506Z,1120
2016-09-06T11:33:16.504Z,1120
2016-09-06T11:34:01.474Z,1120
2016-09-06T11:35:01.463Z,1116
2016-09-06T11:36:01.512Z,1128
2016-09-06T11:37:01.390Z,1140
2016-09-06T11:38:01.385Z,1220
2016-09-06T11:39:01.491Z,1292
2016-09-06T11:40:01.335Z,1256
2016-09-06T11:41:01.679Z,1420
2016-09-06T11:42:01.388Z,2284
2016-09-06T11:43:01.357Z,5840
2016-09-06T11:44:01.941Z,5044
2016-09-06T11:45:01.236Z,3232
2016-09-06T11:46:01.200Z,2724
2016-09-06T11:47:01.238Z,1636
2016-09-06T11:48:01.215Z,1300
2016-09-06T11:49:01.700Z,1304
2016-09-06T11:50:01.154Z,1956
2016-09-06T11:51:01.474Z,2736
2016-09-06T11:52:01.727Z,2332
2016-09-06T11:53:01.041Z,1680
2016-09-06T11:54:00.996Z,1296
2016-09-06T11:55:15.726Z,1356
2016-09-06T11:56:01.172Z,1292
2016-09-06T11:57:01.037Z,1320
2016-09-06T11:58:01.493Z,1420
2016-09-06T11:59:00.909Z,1444
2016-09-06T12:00:00.881Z,2248
2016-09-06T12:02:00.798Z,20960
2016-09-06T12:03:01.218Z,7300
2016-09-06T12:04:00.893Z,1780
2016-09-06T12:05:00.769Z,1920
2016-09-06T12:06:00.721Z,2688
2016-09-06T12:07:01.369Z,1900
2016-09-06T12:08:01.102Z,3716
2016-09-06T12:09:00.630Z,16928
2016-09-06T12:10:00.675Z,15228
2016-09-06T12:11:00.900Z,1428
2016-09-06T12:12:00.625Z,2256
2016-09-06T12:13:00.674Z,3460
2016-09-06T12:14:00.582Z,1944
2016-09-06T12:15:00.541Z,1776
2016-09-06T12:16:00.536Z,1888
2016-09-06T12:17:00.496Z,1824
2016-09-06T12:18:00.448Z,1952
2016-09-06T12:19:00.802Z,1748
2016-09-06T12:20:00.853Z,1740
2016-09-06T12:21:15.472Z,1680
2016-09-06T12:22:00.593Z,1632
2016-09-06T12:23:00.304Z,1612
2016-09-06T12:24:00.347Z,1656
2016-09-06T12:25:00.289Z,1708
2016-09-06T12:26:00.305Z,1716
2016-09-06T12:27:00.387Z,1696
2016-09-06T12:28:00.283Z,1688
2016-09-06T12:29:00.267Z,1612
2016-09-06T12:30:00.207Z,1568
2016-09-06T12:31:00.205Z,1552
2016-09-06T12:32:14.894Z,1492
2016-09-06T12:33:00.391Z,1472
2016-09-06T12:34:00.061Z,1476
2016-09-06T12:35:00.024Z,1696
2016-09-06T12:36:00.040Z,1492
2016-09-06T12:37:00.645Z,1496
2016-09-06T12:38:00.742Z,1580
2016-09-06T12:38:59.935Z,1668
2016-09-06T12:39:59.967Z,1500
2016-09-06T12:40:59.980Z,1512
2016-09-06T12:42:00.258Z,1488
2016-09-06T12:42:59.830Z,1460
2016-09-06T12:43:59.893Z,1492
2016-09-06T12:44:59.810Z,1504
2016-09-06T12:45:59.778Z,1516
2016-09-06T12:47:14.498Z,1564
2016-09-06T12:47:59.804Z,1632
2016-09-06T12:49:14.784Z,1680
2016-09-06T12:49:59.672Z,1800
2016-09-06T12:51:14.912Z,1576
2016-09-06T12:51:59.635Z,1784
2016-09-06T12:52:59.697Z,1756
2016-09-06T12:53:59.633Z,1704
2016-09-06T12:54:59.556Z,1876
2016-09-06T12:55:59.580Z,1828
2016-09-06T12:56:59.553Z,1536
2016-09-06T12:58:00.381Z,1540
2016-09-06T12:58:59.983Z,1660
2016-09-06T12:59:59.508Z,2300
2016-09-06T13:01:14.226Z,2016
2016-09-06T13:01:59.560Z,2360
2016-09-06T13:02:59.387Z,2944
2016-09-06T13:03:59.731Z,2188
2016-09-06T13:04:59.451Z,2296
2016-09-06T13:06:59.293Z,8000
2016-09-06T13:07:59.301Z,3816
2016-09-06T13:09:59.203Z,4404
2016-09-06T13:11:05.960Z,7668
2016-09-06T13:11:59.166Z,4372
2016-09-06T13:13:06.869Z,1740
2016-09-06T13:13:59.174Z,2996
2016-09-06T13:14:59.362Z,1868
2016-09-06T13:15:59.705Z,1704
2016-09-06T13:16:59.503Z,1916
2016-09-06T13:17:59.149Z,2888
2016-09-06T13:19:01.551Z,2520
2016-09-06T13:20:28.435Z,5316
2016-09-06T13:21:00.410Z,10352
2016-09-06T13:21:59.153Z,11672
2016-09-06T13:22:58.961Z,17408
2016-09-06T13:23:58.934Z,23040
2016-09-06T13:24:59.074Z,22112
2016-09-06T13:25:59.037Z,15852
2016-09-06T13:26:59.524Z,7528
2016-09-06T13:28:14.020Z,10376
2016-09-06T13:28:58.802Z,19040
2016-09-06T13:29:58.801Z,23904
2016-09-06T13:30:58.978Z,15808
2016-09-06T13:31:58.806Z,10808
2016-09-06T13:32:58.787Z,5808
2016-09-06T13:33:58.697Z,4824
2016-09-06T13:35:13.416Z,3272
2016-09-06T13:35:59.052Z,2256
2016-09-06T13:36:58.848Z,2528
2016-09-06T13:37:58.972Z,6816
2016-09-06T13:38:58.659Z,4408
2016-09-06T13:39:58.551Z,3916
2016-09-06T13:40:58.926Z,2700
2016-09-06T13:42:58.994Z,3020
2016-09-06T13:43:58.450Z,3468
2016-09-06T13:44:58.639Z,1904
2016-09-06T13:46:13.125Z,2252
2016-09-06T13:46:58.486Z,1900
2016-09-06T13:47:58.454Z,1908
2016-09-06T13:48:58.612Z,2384
2016-09-06T13:49:58.421Z,2204
2016-09-06T13:50:58.469Z,7844
2016-09-06T13:51:58.311Z,8056
2016-09-06T13:52:58.419Z,9400
2016-09-06T13:53:58.385Z,12284
2016-09-06T13:54:58.200Z,14080
2016-09-06T13:55:59.840Z,15680
2016-09-06T13:56:58.222Z,27200
2016-09-06T13:57:58.547Z,20576
2016-09-06T13:58:58.132Z,11116
2016-09-06T13:59:58.933Z,17568
2016-09-06T14:00:58.256Z,24480
2016-09-06T14:01:58.102Z,30784
2016-09-06T14:02:58.046Z,37472
2016-09-06T14:04:12.735Z,38880
2016-09-06T14:04:57.969Z,28064
2016-09-06T14:05:58.206Z,19840
2016-09-06T14:06:57.998Z,24000
2016-09-06T14:07:58.331Z,25088
2016-09-06T14:09:12.642Z,38080
2016-09-06T14:09:58.352Z,29248
2016-09-06T14:10:57.902Z,18016
2016-09-06T14:11:57.921Z,24864
2016-09-06T14:12:57.939Z,18496
2016-09-06T14:13:57.886Z,25664
2016-09-06T14:14:57.963Z,27648
2016-09-06T14:15:57.796Z,30784
2016-09-06T14:17:57.752Z,19552
2016-09-06T14:18:57.771Z,14368
2016-09-06T14:19:57.800Z,29824
2016-09-06T14:20:58.042Z,45216